createdAt,value
2019-05-07T00:00:22.056Z,939.59
2019-05-07T00:01:23.215Z,939.57
2019-05-07T00:02:22.565Z,939.6
2019-05-07T00:03:22.355Z,939.54
2019-05-07T00:04:22.805Z,939.57
2019-05-07T00:05:22.965Z,939.57
2019-05-07T00:06:23.384Z,939.55
2019-05-07T00:07:23.803Z,939.58
2019-05-07T00:08:24.859Z,939.55
2019-05-07T00:09:25.458Z,939.57
2019-05-07T00:10:25.876Z,939.55
2019-05-07T00:11:26.768Z,939.53
2019-05-07T00:12:27.379Z,939.57
2019-05-07T00:13:27.839Z,939.57
2019-05-07T00:14:28.263Z,939.52
2019-05-07T00:17:32.266Z,939.53
2019-05-07T00:18:32.448Z,939.49
2019-05-07T00:19:32.872Z,939.53
2019-05-07T00:20:33.282Z,939.55
2019-05-07T00:21:33.394Z,939.52
2019-05-07T00:22:33.500Z,939.53
2019-05-07T00:23:33.886Z,939.54
2019-05-07T00:24:34.272Z,939.53
2019-05-07T00:25:34.587Z,939.53
2019-05-07T00:26:34.910Z,939.51
2019-05-07T00:27:35.063Z,939.52
2019-05-07T00:28:35.403Z,939.49
2019-05-07T00:29:35.658Z,939.52
2019-05-07T00:30:36.215Z,939.52
2019-05-07T00:31:36.740Z,939.49
2019-05-07T00:32:37.169Z,939.49
2019-05-07T00:33:37.583Z,939.53
2019-05-07T00:34:37.689Z,939.48
2019-05-07T00:35:38.692Z,939.51
2019-05-07T00:36:38.800Z,939.53
2019-05-07T00:37:39.466Z,939.49
2019-05-07T00:38:42.537Z,939.5
2019-05-07T00:39:42.384Z,939.54
2019-05-07T00:40:42.538Z,939.55
2019-05-07T00:41:42.861Z,939.5
2019-05-07T00:42:43.267Z,939.5
2019-05-07T00:43:43.680Z,939.52
2019-05-07T00:44:43.796Z,939.5
2019-05-07T00:45:44.220Z,939.46
2019-05-07T00:46:44.806Z,939.51
2019-05-07T00:47:45.510Z,939.45
2019-05-07T00:48:46.203Z,939.44
2019-05-07T00:49:46.738Z,939.43
2019-05-07T00:50:47.762Z,939.41
2019-05-07T00:51:47.869Z,939.41
2019-05-07T00:52:48.272Z,939.39
2019-05-07T00:53:48.689Z,939.38
2019-05-07T00:54:48.802Z,939.4
2019-05-07T00:55:49.498Z,939.38
2019-05-07T00:56:52.091Z,939.39
2019-05-07T00:57:52.586Z,939.42
2019-05-07T00:58:52.697Z,939.41
2019-05-07T00:59:52.651Z,939.43
2019-05-07T01:00:53.274Z,939.36
2019-05-07T01:01:53.701Z,939.42
2019-05-07T01:02:54.111Z,939.39
2019-05-07T01:03:54.237Z,939.41
2019-05-07T01:04:54.619Z,939.37
2019-05-07T01:05:55.170Z,939.39
2019-05-07T01:06:55.605Z,939.38
2019-05-07T01:07:55.731Z,939.38
2019-05-07T01:08:56.531Z,939.37
2019-05-07T01:09:57.465Z,939.35
2019-05-07T01:10:57.854Z,939.37
2019-05-07T01:11:58.252Z,939.4
2019-05-07T01:12:59.398Z,939.34
2019-05-07T01:13:59.317Z,939.35
2019-05-07T01:14:59.863Z,939.34
2019-05-07T01:16:02.467Z,939.32
2019-05-07T01:17:02.365Z,939.3
2019-05-07T01:18:02.829Z,939.29
2019-05-07T01:19:02.906Z,939.24
2019-05-07T01:20:03.313Z,939.27
2019-05-07T01:21:03.727Z,939.26
2019-05-07T01:22:03.842Z,939.28
2019-05-07T01:23:04.225Z,939.27
2019-05-07T01:24:05.182Z,939.27
2019-05-07T01:25:06.119Z,939.24
2019-05-07T01:26:06.463Z,939.27
2019-05-07T01:27:07.032Z,939.31
2019-05-07T01:28:07.891Z,939.26
2019-05-07T01:29:08.130Z,939.28
2019-05-07T01:30:08.834Z,939.28
2019-05-07T01:31:08.942Z,939.29
2019-05-07T01:32:09.059Z,939.24
2019-05-07T01:33:09.168Z,939.28
2019-05-07T01:34:11.956Z,939.24
2019-05-07T01:35:09.988Z,939.25
2019-05-07T01:36:13.005Z,939.25
2019-05-07T01:37:12.374Z,939.28
2019-05-07T01:38:12.346Z,939.24
2019-05-07T01:39:13.044Z,939.25
2019-05-07T01:40:13.298Z,939.2
2019-05-07T01:41:13.685Z,939.22
2019-05-07T01:42:13.796Z,939.22
2019-05-07T01:43:14.199Z,939.26
2019-05-07T01:44:14.820Z,939.16
2019-05-07T01:45:15.157Z,939.24
2019-05-07T01:46:15.283Z,939.19
2019-05-07T01:47:16.234Z,939.22
2019-05-07T01:48:16.921Z,939.17
2019-05-07T01:49:17.837Z,939.2
2019-05-07T01:50:18.078Z,939.21
2019-05-07T01:51:18.467Z,939.17
2019-05-07T01:52:18.871Z,939.18
2019-05-07T01:53:18.984Z,939.18
2019-05-07T01:54:19.091Z,939.19
2019-05-07T01:55:19.365Z,939.17
2019-05-07T01:56:19.773Z,939.16
2019-05-07T01:57:19.930Z,939.17
2019-05-07T01:58:22.101Z,939.14
2019-05-07T01:59:21.931Z,939.09
2019-05-07T02:00:22.387Z,939.12
2019-05-07T02:01:22.151Z,939.12
2019-05-07T02:02:22.841Z,939.13
2019-05-07T02:03:23.034Z,939.11
2019-05-07T02:04:22.426Z,939.11
2019-05-07T02:05:22.963Z,939.11
2019-05-07T02:06:23.678Z,939.12
2019-05-07T02:07:24.664Z,939.09
2019-05-07T02:08:25.049Z,939.12
2019-05-07T02:09:26.106Z,939.07
2019-05-07T02:10:26.760Z,939.08
2019-05-07T02:11:27.291Z,939.08
2019-05-07T02:12:27.781Z,939.09
2019-05-07T02:13:27.887Z,939.1
2019-05-07T02:14:28.550Z,939.06
2019-05-07T02:15:28.668Z,939.03
2019-05-07T02:16:29.400Z,939.05
2019-05-07T02:17:32.013Z,939.02
2019-05-07T02:18:32.553Z,939.01
2019-05-07T02:19:32.876Z,939.02
2019-05-07T02:20:32.422Z,938.98
2019-05-07T02:21:33.056Z,939
2019-05-07T02:22:33.789Z,938.98
2019-05-07T02:23:34.190Z,938.97
2019-05-07T02:24:34.911Z,938.95
2019-05-07T02:25:35.087Z,938.94
2019-05-07T02:26:35.604Z,938.97
2019-05-07T02:27:36.028Z,938.94
2019-05-07T02:28:36.340Z,938.93
2019-05-07T02:29:38.214Z,938.93
2019-05-07T02:30:37.407Z,938.89
2019-05-07T02:31:38.211Z,938.91
2019-05-07T02:32:38.902Z,938.9
2019-05-07T02:33:39.306Z,938.92
2019-05-07T02:34:39.519Z,938.88
2019-05-07T02:35:39.929Z,938.86
2019-05-07T02:36:43.149Z,938.84
2019-05-07T02:37:48.118Z,938.86
2019-05-07T02:38:44.169Z,938.79
2019-05-07T02:39:44.208Z,938.84
2019-05-07T02:40:43.281Z,938.81
2019-05-07T02:41:44.274Z,938.77
2019-05-07T02:42:44.344Z,938.76
2019-05-07T02:43:44.373Z,938.79
2019-05-07T02:44:45.120Z,938.79
2019-05-07T02:45:45.890Z,938.79
2019-05-07T02:46:46.862Z,938.8
2019-05-07T02:47:47.915Z,938.73
2019-05-07T02:48:48.606Z,938.73
2019-05-07T02:49:49.454Z,938.72
2019-05-07T02:50:53.593Z,938.72
2019-05-07T02:51:53.098Z,938.73
2019-05-07T02:52:53.575Z,938.65
2019-05-07T02:53:53.608Z,938.66
2019-05-07T02:54:53.846Z,938.61
2019-05-07T02:55:53.213Z,938.62
2019-05-07T02:56:53.645Z,938.59
2019-05-07T02:57:54.385Z,938.59
2019-05-07T02:58:55.021Z,938.58
2019-05-07T02:59:55.823Z,938.59
2019-05-07T03:00:56.762Z,938.61
2019-05-07T03:01:57.306Z,938.61
2019-05-07T03:02:58.228Z,938.59
2019-05-07T03:03:59.234Z,938.64
2019-05-07T03:04:59.510Z,938.61
2019-05-07T03:06:02.857Z,938.62
2019-05-07T03:07:03.806Z,938.6
2019-05-07T03:08:03.253Z,938.6
2019-05-07T03:09:03.271Z,938.57
2019-05-07T03:10:03.671Z,938.61
2019-05-07T03:11:03.714Z,938.62
2019-05-07T03:12:04.285Z,938.61
2019-05-07T03:13:04.558Z,938.56
2019-05-07T03:14:04.843Z,938.57
2019-05-07T03:15:05.650Z,938.57
2019-05-07T03:16:06.140Z,938.55
2019-05-07T03:17:06.720Z,938.53
2019-05-07T03:18:07.532Z,938.54
2019-05-07T03:19:07.686Z,938.53
2019-05-07T03:20:07.977Z,938.52
2019-05-07T03:21:08.461Z,938.54
2019-05-07T03:22:08.729Z,938.49
2019-05-07T03:23:08.960Z,938.5
2019-05-07T03:24:09.365Z,938.51
2019-05-07T03:25:09.792Z,938.49
2019-05-07T03:26:13.374Z,938.52
2019-05-07T03:27:13.669Z,938.48
2019-05-07T03:28:13.546Z,938.46
2019-05-07T03:29:13.027Z,938.46
2019-05-07T03:30:16.589Z,938.42
2019-05-07T03:31:16.541Z,938.44
2019-05-07T03:32:16.008Z,938.4
2019-05-07T03:33:16.271Z,938.41
2019-05-07T03:34:16.666Z,938.36
2019-05-07T03:35:16.823Z,938.38
2019-05-07T03:36:17.190Z,938.36
2019-05-07T03:37:16.666Z,938.39
2019-05-07T03:38:17.376Z,938.37
2019-05-07T03:39:18.253Z,938.37
2019-05-07T03:40:18.783Z,938.36
2019-05-07T03:41:22.479Z,938.43
2019-05-07T03:42:19.697Z,938.39
2019-05-07T03:43:22.817Z,938.42
2019-05-07T03:44:23.792Z,938.38
2019-05-07T03:45:23.032Z,938.4
2019-05-07T03:46:23.411Z,938.4
2019-05-07T03:47:23.798Z,938.34
2019-05-07T03:48:23.935Z,938.4
2019-05-07T03:49:23.832Z,938.42
2019-05-07T03:50:24.566Z,938.38
2019-05-07T03:51:24.954Z,938.38
2019-05-07T03:52:25.087Z,938.4
2019-05-07T03:53:25.834Z,938.38
2019-05-07T03:54:26.621Z,938.37
2019-05-07T03:55:27.479Z,938.37
2019-05-07T03:56:28.394Z,938.4
2019-05-07T03:57:28.682Z,938.41
2019-05-07T03:58:28.819Z,938.36
2019-05-07T03:59:28.991Z,938.35
2019-05-07T04:00:33.023Z,938.36
2019-05-07T04:01:33.406Z,938.36
2019-05-07T04:02:33.139Z,938.34
2019-05-07T04:03:34.012Z,938.33
2019-05-07T04:04:33.290Z,938.32
2019-05-07T04:05:34.305Z,938.35
2019-05-07T04:06:34.019Z,938.35
2019-05-07T04:07:34.416Z,938.3
2019-05-07T04:08:34.701Z,938.35
2019-05-07T04:09:35.707Z,938.33
2019-05-07T04:10:36.306Z,938.35
2019-05-07T04:11:37.318Z,938.34
2019-05-07T04:12:37.954Z,938.36
2019-05-07T04:13:38.796Z,938.36
2019-05-07T04:14:39.552Z,938.35
2019-05-07T04:15:43.475Z,938.34
2019-05-07T04:16:44.038Z,938.38
2019-05-07T04:17:42.934Z,938.35
2019-05-07T04:18:43.884Z,938.36
2019-05-07T04:19:43.990Z,938.37
2019-05-07T04:20:43.971Z,938.38
2019-05-07T04:21:43.947Z,938.38
2019-05-07T04:22:44.052Z,938.35
2019-05-07T04:23:44.760Z,938.35
2019-05-07T04:24:45.235Z,938.33
2019-05-07T04:25:46.081Z,938.35
2019-05-07T04:26:47.049Z,938.37
2019-05-07T04:27:47.618Z,938.34
2019-05-07T04:28:48.638Z,938.36
2019-05-07T04:29:48.810Z,938.35
2019-05-07T04:30:53.026Z,938.32
2019-05-07T04:31:53.230Z,938.33
2019-05-07T04:32:52.926Z,938.37
2019-05-07T04:33:53.302Z,938.33
2019-05-07T04:34:53.143Z,938.34
2019-05-07T04:35:53.737Z,938.33
2019-05-07T04:36:54.004Z,938.38
2019-05-07T04:37:54.898Z,938.34
2019-05-07T04:38:55.020Z,938.34
2019-05-07T04:39:55.679Z,938.36
2019-05-07T04:40:56.699Z,938.41
2019-05-07T04:41:57.466Z,938.42
2019-05-07T04:42:58.445Z,938.37
2019-05-07T04:43:59.167Z,938.39
2019-05-07T04:44:59.307Z,938.43
2019-05-07T04:46:02.800Z,938.39
2019-05-07T04:47:04.140Z,938.4
2019-05-07T04:48:03.018Z,938.4
2019-05-07T04:49:03.582Z,938.36
2019-05-07T04:50:03.705Z,938.38
2019-05-07T04:51:18.104Z,938.39
2019-05-07T04:52:18.958Z,938.4
2019-05-07T04:53:19.634Z,938.36
2019-05-07T04:54:23.433Z,938.33
2019-05-07T04:55:22.880Z,938.31
2019-05-07T04:56:23.770Z,938.33
2019-05-07T04:57:23.685Z,938.35
2019-05-07T04:58:24.902Z,938.33
2019-05-07T04:59:24.535Z,938.36
2019-05-07T05:00:25.023Z,938.35
2019-05-07T05:01:25.890Z,938.36
2019-05-07T05:02:26.250Z,938.37
2019-05-07T05:03:27.138Z,938.38
2019-05-07T05:04:31.224Z,938.35
2019-05-07T05:05:28.172Z,938.36
2019-05-07T05:06:28.865Z,938.34
2019-05-07T05:07:29.300Z,938.37
2019-05-07T05:08:32.197Z,938.37
2019-05-07T05:09:32.650Z,938.36
2019-05-07T05:10:33.421Z,938.37
2019-05-07T05:11:33.177Z,938.38
2019-05-07T05:12:32.594Z,938.39
2019-05-07T05:13:32.947Z,938.39
2019-05-07T05:14:33.708Z,938.43
2019-05-07T05:15:32.257Z,938.41
2019-05-07T05:16:33.013Z,938.47
2019-05-07T05:17:46.222Z,938.41
2019-05-07T05:18:34.366Z,938.42
2019-05-07T05:19:34.768Z,938.44
2019-05-07T05:20:34.932Z,938.47
2019-05-07T05:21:35.958Z,938.47
2019-05-07T05:22:36.587Z,938.49
2019-05-07T05:23:36.918Z,938.48
2019-05-07T05:24:37.602Z,938.45
2019-05-07T05:25:37.991Z,938.46
2019-05-07T05:26:38.564Z,938.45
2019-05-07T05:27:38.678Z,938.46
2019-05-07T05:28:39.088Z,938.42
2019-05-07T05:29:40.084Z,938.44
2019-05-07T05:30:42.399Z,938.45
2019-05-07T05:31:42.104Z,938.45
2019-05-07T05:32:42.426Z,938.48
2019-05-07T05:33:42.772Z,938.43
2019-05-07T05:34:43.180Z,938.46
2019-05-07T05:35:43.568Z,938.49
2019-05-07T05:36:43.680Z,938.51
2019-05-07T05:37:43.803Z,938.53
2019-05-07T05:38:43.914Z,938.53
2019-05-07T05:39:44.793Z,938.57
2019-05-07T05:40:44.927Z,938.53
2019-05-07T05:41:45.608Z,938.57
2019-05-07T05:42:46.118Z,938.59
2019-05-07T05:43:46.446Z,938.59
2019-05-07T05:44:47.271Z,938.59
2019-05-07T05:45:47.772Z,938.57
2019-05-07T05:46:48.348Z,938.59
2019-05-07T05:48:01.753Z,938.6
2019-05-07T05:48:49.121Z,938.6
2019-05-07T05:49:49.231Z,938.63
2019-05-07T05:50:49.801Z,938.65
2019-05-07T05:51:52.473Z,938.65
2019-05-07T05:52:52.061Z,938.64
2019-05-07T05:53:52.531Z,938.63
2019-05-07T05:54:52.895Z,938.68
2019-05-07T05:55:53.112Z,938.63
2019-05-07T05:56:53.534Z,938.67
2019-05-07T05:57:54.581Z,938.7
2019-05-07T05:58:54.950Z,938.7
2019-05-07T05:59:55.748Z,938.73
2019-05-07T06:00:56.828Z,938.74
2019-05-07T06:01:56.554Z,938.74
2019-05-07T06:02:57.296Z,938.73
2019-05-07T06:03:57.587Z,938.75
2019-05-07T06:04:58.524Z,938.79
2019-05-07T06:05:58.700Z,938.8
2019-05-07T06:07:08.672Z,938.78
2019-05-07T06:07:59.569Z,938.78
2019-05-07T06:09:01.894Z,938.82
2019-05-07T06:10:02.490Z,938.78
2019-05-07T06:11:02.249Z,938.8
2019-05-07T06:12:02.913Z,938.82
2019-05-07T06:13:03.630Z,938.85
2019-05-07T06:14:04.041Z,938.81
2019-05-07T06:15:04.567Z,938.86
2019-05-07T06:16:04.944Z,938.86
2019-05-07T06:17:05.719Z,938.87
2019-05-07T06:18:17.852Z,938.85
2019-05-07T06:19:07.587Z,938.85
2019-05-07T06:20:07.122Z,938.89
2019-05-07T06:21:07.749Z,938.93
2019-05-07T06:22:08.195Z,938.9
2019-05-07T06:23:08.621Z,938.97
2019-05-07T06:24:08.743Z,938.91
2019-05-07T06:25:08.859Z,938.96
2019-05-07T06:26:09.021Z,938.97
2019-05-07T06:27:09.151Z,938.97
2019-05-07T06:28:09.548Z,938.92
2019-05-07T06:29:11.800Z,938.92
2019-05-07T06:30:12.034Z,938.94
2019-05-07T06:31:12.622Z,938.9
2019-05-07T06:32:12.160Z,939
2019-05-07T06:33:12.493Z,938.95
2019-05-07T06:34:12.547Z,938.95
2019-05-07T06:35:12.497Z,938.99
2019-05-07T06:36:12.820Z,938.95
2019-05-07T06:37:12.935Z,938.95
2019-05-07T06:38:13.349Z,938.96
2019-05-07T06:39:13.755Z,938.95
2019-05-07T06:40:14.161Z,938.98
2019-05-07T06:41:15.073Z,938.92
2019-05-07T06:42:15.653Z,938.93
2019-05-07T06:43:15.908Z,938.92
2019-05-07T06:44:16.513Z,938.93
2019-05-07T06:45:16.965Z,938.94
2019-05-07T06:46:17.858Z,938.92
2019-05-07T06:47:18.223Z,938.94
2019-05-07T06:48:32.957Z,938.95
2019-05-07T06:49:18.961Z,938.9
2019-05-07T06:50:21.835Z,938.89
2019-05-07T06:51:21.884Z,938.93
2019-05-07T06:52:22.401Z,938.91
2019-05-07T06:53:22.214Z,938.88
2019-05-07T06:54:22.527Z,938.92
2019-05-07T06:55:22.957Z,938.94
2019-05-07T06:56:23.689Z,938.95
2019-05-07T06:57:24.442Z,938.99
2019-05-07T06:58:24.843Z,939.03
2019-05-07T06:59:25.394Z,939.08
2019-05-07T07:00:26.206Z,939.13
2019-05-07T07:01:26.420Z,939.13
2019-05-07T07:02:26.561Z,939.16
2019-05-07T07:03:26.840Z,939.19
2019-05-07T07:04:27.104Z,939.2
2019-05-07T07:05:27.856Z,939.2
2019-05-07T07:06:28.690Z,939.15
2019-05-07T07:07:33.732Z,939.18
2019-05-07T07:08:29.639Z,939.19
2019-05-07T07:09:32.707Z,939.2
2019-05-07T07:10:32.193Z,939.21
2019-05-07T07:11:32.477Z,939.23
2019-05-07T07:12:33.611Z,939.22
2019-05-07T07:13:33.796Z,939.2
2019-05-07T07:14:34.366Z,939.17
2019-05-07T07:15:35.159Z,939.16
2019-05-07T07:16:35.909Z,939.18
2019-05-07T07:17:36.355Z,939.16
2019-05-07T07:18:48.329Z,939.17
2019-05-07T07:19:37.954Z,939.14
2019-05-07T07:20:38.556Z,939.21
2019-05-07T07:21:38.412Z,939.2
2019-05-07T07:22:39.367Z,939.18
2019-05-07T07:23:39.571Z,939.16
2019-05-07T07:24:42.189Z,939.14
2019-05-07T07:25:42.960Z,939.12
2019-05-07T07:26:42.261Z,939.18
2019-05-07T07:27:42.991Z,939.13
2019-05-07T07:28:43.165Z,939.1
2019-05-07T07:29:45.021Z,939.1
2019-05-07T07:30:44.293Z,939.07
2019-05-07T07:31:44.976Z,939.08
2019-05-07T07:32:45.799Z,939.08
2019-05-07T07:33:46.265Z,939
2019-05-07T07:34:47.160Z,938.95
2019-05-07T07:35:47.482Z,938.93
2019-05-07T07:37:01.724Z,938.89
2019-05-07T07:37:49.511Z,938.88
2019-05-07T07:38:52.514Z,938.84
2019-05-07T07:39:52.411Z,938.88
2019-05-07T07:40:52.726Z,938.88
2019-05-07T07:41:52.343Z,938.89
2019-05-07T07:42:53.009Z,938.88
2019-05-07T07:43:53.330Z,938.88
2019-05-07T07:44:53.754Z,938.89
2019-05-07T07:45:54.451Z,938.88
2019-05-07T07:46:54.762Z,938.83
2019-05-07T07:47:55.590Z,938.89
2019-05-07T07:49:06.354Z,938.89
2019-05-07T07:49:56.384Z,938.83
2019-05-07T07:50:56.955Z,938.86
2019-05-07T07:51:57.649Z,938.86
2019-05-07T07:52:57.796Z,938.85
2019-05-07T07:53:58.500Z,938.9
2019-05-07T07:54:59.249Z,938.94
2019-05-07T07:55:59.716Z,938.92
2019-05-07T07:57:02.266Z,938.92
2019-05-07T07:58:02.637Z,938.94
2019-05-07T07:59:02.554Z,938.9
2019-05-07T08:00:03.462Z,938.9
2019-05-07T08:01:04.033Z,938.83
2019-05-07T08:02:04.085Z,938.86
2019-05-07T08:03:04.221Z,938.88
2019-05-07T08:04:05.215Z,938.89
2019-05-07T08:05:05.635Z,938.87
2019-05-07T08:06:05.827Z,938.87
2019-05-07T08:07:06.616Z,938.82
2019-05-07T08:08:06.772Z,938.87
2019-05-07T08:09:07.859Z,938.85
2019-05-07T08:10:08.904Z,938.85
2019-05-07T08:11:09.208Z,938.85
2019-05-07T08:12:09.815Z,938.79
2019-05-07T08:13:12.234Z,938.76
2019-05-07T08:14:12.585Z,938.78
2019-05-07T08:15:17.851Z,938.79
2019-05-07T08:16:13.067Z,938.82
2019-05-07T08:17:13.653Z,938.78
2019-05-07T08:18:13.797Z,938.79
2019-05-07T08:19:21.464Z,938.77
2019-05-07T08:20:14.870Z,938.78
2019-05-07T08:21:15.683Z,938.77
2019-05-07T08:22:16.364Z,938.74
2019-05-07T08:23:16.513Z,938.72
2019-05-07T08:24:17.479Z,938.69
2019-05-07T08:25:17.584Z,938.73
2019-05-07T08:26:17.715Z,938.73
2019-05-07T08:27:19.235Z,938.72
2019-05-07T08:28:19.151Z,938.64
2019-05-07T08:29:19.518Z,938.65
2019-05-07T08:30:22.208Z,938.66
2019-05-07T08:31:22.567Z,938.66
2019-05-07T08:32:22.257Z,938.67
2019-05-07T08:33:22.387Z,938.69
2019-05-07T08:34:21.918Z,938.73
2019-05-07T08:35:22.438Z,938.71
2019-05-07T08:36:23.165Z,938.7
2019-05-07T08:37:24.498Z,938.7
2019-05-07T08:38:23.446Z,938.66
2019-05-07T08:39:25.088Z,938.73
2019-05-07T08:40:24.654Z,938.66
2019-05-07T08:41:25.720Z,938.64
2019-05-07T08:42:26.087Z,938.69
2019-05-07T08:43:26.209Z,938.67
2019-05-07T08:44:26.513Z,938.67
2019-05-07T08:45:27.345Z,938.63
2019-05-07T08:46:27.191Z,938.67
2019-05-07T08:47:27.764Z,938.68
2019-05-07T08:48:28.183Z,938.67
2019-05-07T08:49:36.623Z,938.71
2019-05-07T08:50:28.681Z,938.62
2019-05-07T08:51:29.182Z,938.65
2019-05-07T08:52:29.685Z,938.65
2019-05-07T08:53:32.731Z,938.63
2019-05-07T08:54:32.074Z,938.67
2019-05-07T08:55:32.182Z,938.68
2019-05-07T08:56:31.971Z,938.63
2019-05-07T08:57:33.467Z,938.64
2019-05-07T08:58:33.025Z,938.69
2019-05-07T08:59:33.164Z,938.67
2019-05-07T09:00:34.641Z,938.63
2019-05-07T09:01:34.472Z,938.6
2019-05-07T09:02:34.643Z,938.56
2019-05-07T09:03:35.601Z,938.6
2019-05-07T09:04:36.372Z,938.53
2019-05-07T09:05:37.165Z,938.47
2019-05-07T09:06:38.224Z,938.52
2019-05-07T09:07:37.899Z,938.48
2019-05-07T09:08:38.323Z,938.49
2019-05-07T09:09:39.306Z,938.46
2019-05-07T09:10:42.225Z,938.42
2019-05-07T09:11:42.524Z,938.43
2019-05-07T09:12:42.846Z,938.41
2019-05-07T09:13:42.134Z,938.44
2019-05-07T09:14:43.375Z,938.39
2019-05-07T09:15:43.843Z,938.41
2019-05-07T09:16:44.048Z,938.4
2019-05-07T09:17:45.066Z,938.37
2019-05-07T09:18:45.565Z,938.39
2019-05-07T09:19:51.059Z,938.37
2019-05-07T09:20:46.967Z,938.35
2019-05-07T09:21:47.731Z,938.33
2019-05-07T09:22:48.439Z,938.35
2019-05-07T09:23:48.672Z,938.34
2019-05-07T09:24:49.399Z,938.36
2019-05-07T09:25:51.827Z,938.33
2019-05-07T09:26:52.346Z,938.35
2019-05-07T09:27:52.342Z,938.32
2019-05-07T09:28:52.350Z,938.3
2019-05-07T09:29:52.039Z,938.3
2019-05-07T09:30:53.148Z,938.26
2019-05-07T09:31:53.085Z,938.3
2019-05-07T09:32:53.527Z,938.3
2019-05-07T09:33:54.089Z,938.28
2019-05-07T09:34:55.170Z,938.29
2019-05-07T09:35:55.885Z,938.28
2019-05-07T09:36:56.159Z,938.24
2019-05-07T09:37:56.595Z,938.22
2019-05-07T09:38:59.277Z,938.2
2019-05-07T09:39:59.059Z,938.21
2019-05-07T09:40:59.459Z,938.17
2019-05-07T09:42:02.038Z,938.18
2019-05-07T09:43:02.355Z,938.12
2019-05-07T09:44:03.116Z,938.11
2019-05-07T09:45:01.968Z,938.12
2019-05-07T09:46:02.624Z,938.07
2019-05-07T09:47:02.617Z,938.08
2019-05-07T09:48:03.035Z,938.14
2019-05-07T09:49:03.689Z,938.09
2019-05-07T09:50:07.705Z,938.09
2019-05-07T09:51:04.440Z,938.05
2019-05-07T09:52:06.024Z,937.99
2019-05-07T09:53:05.666Z,938.06
2019-05-07T09:54:06.269Z,938.03
2019-05-07T09:55:14.780Z,938.03
2019-05-07T09:56:07.352Z,938
2019-05-07T09:57:22.712Z,938
2019-05-07T09:58:07.961Z,937.98
2019-05-07T09:59:08.993Z,937.98
2019-05-07T10:00:09.345Z,937.98
2019-05-07T10:01:09.488Z,938.01
2019-05-07T10:02:12.086Z,938.02
2019-05-07T10:03:12.377Z,937.99
2019-05-07T10:04:10.894Z,937.98
2019-05-07T10:05:11.049Z,937.93
2019-05-07T10:06:12.410Z,937.9
2019-05-07T10:07:12.801Z,937.91
2019-05-07T10:08:13.336Z,937.9
2019-05-07T10:09:13.221Z,937.88
2019-05-07T10:10:13.664Z,937.9
2019-05-07T10:11:14.096Z,937.88
2019-05-07T10:12:14.413Z,937.91
2019-05-07T10:13:14.963Z,937.91
2019-05-07T10:14:15.464Z,937.95
2019-05-07T10:15:16.158Z,937.89
2019-05-07T10:16:16.845Z,937.87
2019-05-07T10:17:17.549Z,937.91
2019-05-07T10:18:18.254Z,937.95
2019-05-07T10:19:19.211Z,937.91
2019-05-07T10:20:22.479Z,937.93
2019-05-07T10:21:22.057Z,937.89
2019-05-07T10:22:22.754Z,937.88
2019-05-07T10:23:23.066Z,937.85
2019-05-07T10:24:22.270Z,937.81
2019-05-07T10:25:22.813Z,937.79
2019-05-07T10:26:23.244Z,937.78
2019-05-07T10:27:23.883Z,937.78
2019-05-07T10:28:24.638Z,937.79
2019-05-07T10:29:25.161Z,937.79
2019-05-07T10:30:25.543Z,937.8
2019-05-07T10:31:26.151Z,937.81
2019-05-07T10:32:27.771Z,937.76
2019-05-07T10:33:27.797Z,937.77
2019-05-07T10:34:28.505Z,937.8
2019-05-07T10:35:31.003Z,937.81
2019-05-07T10:36:29.264Z,937.77
2019-05-07T10:37:31.644Z,937.79
2019-05-07T10:38:31.223Z,937.77
2019-05-07T10:39:32.513Z,937.7
2019-05-07T10:40:32.692Z,937.71
2019-05-07T10:41:32.403Z,937.71
2019-05-07T10:42:32.772Z,937.67
2019-05-07T10:43:32.983Z,937.71
2019-05-07T10:44:33.519Z,937.64
2019-05-07T10:45:34.092Z,937.64
2019-05-07T10:46:34.411Z,937.66
2019-05-07T10:47:34.538Z,937.65
2019-05-07T10:48:35.674Z,937.66
2019-05-07T10:49:35.212Z,937.72
2019-05-07T10:50:39.086Z,937.65
2019-05-07T10:51:36.309Z,937.62
2019-05-07T10:52:37.144Z,937.6
2019-05-07T10:53:37.823Z,937.63
2019-05-07T10:54:38.499Z,937.59
2019-05-07T10:55:39.472Z,937.63
2019-05-07T10:56:41.572Z,937.59
2019-05-07T10:57:42.201Z,937.61
2019-05-07T10:58:41.725Z,937.61
2019-05-07T10:59:42.201Z,937.59
2019-05-07T11:00:42.071Z,937.53
2019-05-07T11:01:42.521Z,937.53
2019-05-07T11:02:43.713Z,937.54
2019-05-07T11:03:43.946Z,937.54
2019-05-07T11:04:47.284Z,937.49
2019-05-07T11:05:47.575Z,937.55
2019-05-07T11:06:47.745Z,937.52
2019-05-07T11:07:48.571Z,937.47
2019-05-07T11:08:49.176Z,937.48
2019-05-07T11:09:49.398Z,937.46
2019-05-07T11:10:49.855Z,937.43
2019-05-07T11:11:51.826Z,937.41
2019-05-07T11:12:51.700Z,937.36
2019-05-07T11:13:55.406Z,937.41
2019-05-07T11:14:52.354Z,937.37
2019-05-07T11:15:52.778Z,937.39
2019-05-07T11:16:53.189Z,937.31
2019-05-07T11:17:54.285Z,937.27
2019-05-07T11:18:54.498Z,937.28
2019-05-07T11:19:55.521Z,937.23
2019-05-07T11:20:56.615Z,937.21
2019-05-07T11:21:57.353Z,937.21
2019-05-07T11:22:57.601Z,937.19
2019-05-07T11:23:57.768Z,937.2
2019-05-07T11:24:58.457Z,937.18
2019-05-07T11:26:02.511Z,937.15
2019-05-07T11:26:59.128Z,937.15
2019-05-07T11:27:59.836Z,937.09
2019-05-07T11:29:02.227Z,937.03
2019-05-07T11:30:02.668Z,937.02
2019-05-07T11:31:02.020Z,937.03
2019-05-07T11:32:01.910Z,937.02
2019-05-07T11:33:03.034Z,937
2019-05-07T11:34:03.044Z,936.98
2019-05-07T11:35:03.735Z,936.99
2019-05-07T11:36:04.754Z,936.98
2019-05-07T11:37:05.790Z,937.01
2019-05-07T11:38:17.607Z,936.95
2019-05-07T11:39:06.445Z,936.96
2019-05-07T11:40:06.287Z,936.94
2019-05-07T11:41:06.747Z,936.84
2019-05-07T11:42:07.073Z,936.83
2019-05-07T11:43:08.176Z,936.8
2019-05-07T11:44:08.747Z,936.87
2019-05-07T11:45:09.002Z,936.79
2019-05-07T11:46:09.179Z,936.76
2019-05-07T11:47:12.165Z,936.79
2019-05-07T11:48:13.097Z,936.75
2019-05-07T11:49:13.822Z,936.76
2019-05-07T11:50:14.682Z,936.72
2019-05-07T11:51:15.185Z,936.72
2019-05-07T11:52:15.056Z,936.75
2019-05-07T11:53:13.369Z,936.74
2019-05-07T11:54:14.361Z,936.74
2019-05-07T11:55:15.098Z,936.75
2019-05-07T11:56:15.458Z,936.71
2019-05-07T11:57:15.626Z,936.69
2019-05-07T11:58:16.389Z,936.7
2019-05-07T11:59:17.333Z,936.67
2019-05-07T12:00:17.759Z,936.66
2019-05-07T12:01:18.546Z,936.7
2019-05-07T12:02:19.222Z,936.67
2019-05-07T12:03:21.891Z,936.65
2019-05-07T12:04:20.327Z,936.66
2019-05-07T12:05:22.657Z,936.67
2019-05-07T12:06:22.099Z,936.63
2019-05-07T12:07:22.534Z,936.66
2019-05-07T12:08:36.503Z,936.67
2019-05-07T12:09:23.761Z,936.61
2019-05-07T12:10:24.818Z,936.6
2019-05-07T12:11:25.573Z,936.57
2019-05-07T12:12:25.867Z,936.58
2019-05-07T12:13:26.884Z,936.55
2019-05-07T12:14:31.474Z,936.59
2019-05-07T12:15:28.440Z,936.54
2019-05-07T12:16:28.639Z,936.5
2019-05-07T12:17:29.199Z,936.49
2019-05-07T12:18:31.899Z,936.42
2019-05-07T12:19:33.025Z,936.42
2019-05-07T12:20:32.379Z,936.47
2019-05-07T12:21:32.246Z,936.41
2019-05-07T12:22:32.422Z,936.4
2019-05-07T12:23:33.424Z,936.42
2019-05-07T12:24:32.997Z,936.41
2019-05-07T12:25:34.381Z,936.39
2019-05-07T12:26:34.515Z,936.34
2019-05-07T12:27:34.834Z,936.38
2019-05-07T12:28:35.301Z,936.38
2019-05-07T12:29:35.857Z,936.32
2019-05-07T12:30:36.475Z,936.3
2019-05-07T12:31:36.951Z,936.31
2019-05-07T12:32:37.322Z,936.31
2019-05-07T12:33:37.768Z,936.28
2019-05-07T12:34:38.190Z,936.33
2019-05-07T12:35:38.949Z,936.32
2019-05-07T12:36:40.745Z,936.3
2019-05-07T12:37:42.371Z,936.34
2019-05-07T12:38:41.745Z,936.31
2019-05-07T12:39:42.295Z,936.28
2019-05-07T12:40:42.152Z,936.27